KCIC

Chico Municipal Airport

Airport
ICAO code
KCIC
IATA Code
CIC
Summary
ICAO Region
NAM
ICAO Territory
Location

Chico, California

Serving
Butte County
Elevation
240 ft
Coordinates
39° 47' 57" N , 121° 51' 17" W
KCC
Metar
KCIC 301559Z 31013KT 10SM CLR 24/01 A2998

Description

Chico Municipal Airport is a public airport located 6 km north of the central business district of Chico, a city in Butte County, California.

Climatology

Dry-summer subtropical ”Mediterranean" climate (Köppen climate classification Csb) - characterized by warm, dry summers and mild winters.

Airport map

Aerial View

SKYbrary Partners:

Safety knowledge contributed by: